sensor_id;sensor_type;location;lat;lon;timestamp;P1;durP1;ratioP1;P2;durP2;ratioP2
15536;SDS011;7870;52.448;13.270;2023-03-23T00:00:36;3.13;;;1.83;;
15536;SDS011;7870;52.448;13.270;2023-03-23T00:03:02;2.97;;;1.70;;
15536;SDS011;7870;52.448;13.270;2023-03-23T00:05:27;2.80;;;1.42;;
15536;SDS011;7870;52.448;13.270;2023-03-23T00:07:54;3.47;;;2.08;;
15536;SDS011;7870;52.448;13.270;2023-03-23T00:10:20;3.40;;;1.83;;
15536;SDS011;7870;52.448;13.270;2023-03-23T00:12:46;3.75;;;1.60;;
15536;SDS011;7870;52.448;13.270;2023-03-23T00:15:14;3.47;;;1.88;;
15536;SDS011;7870;52.448;13.270;2023-03-23T00:17:41;3.67;;;1.90;;
15536;SDS011;7870;52.448;13.270;2023-03-23T00:20:09;6.38;;;2.20;;
15536;SDS011;7870;52.448;13.270;2023-03-23T00:22:37;4.25;;;1.98;;
15536;SDS011;7870;52.448;13.270;2023-03-23T00:25:06;4.13;;;2.33;;
15536;SDS011;7870;52.448;13.270;2023-03-23T00:27:33;9.35;;;3.38;;
15536;SDS011;7870;52.448;13.270;2023-03-23T00:30:00;5.50;;;2.10;;
15536;SDS011;7870;52.448;13.270;2023-03-23T00:32:25;4.03;;;2.10;;
15536;SDS011;7870;52.448;13.270;2023-03-23T00:34:55;4.00;;;1.70;;
15536;SDS011;7870;52.448;13.270;2023-03-23T00:37:21;3.75;;;1.95;;
15536;SDS011;7870;52.448;13.270;2023-03-23T00:39:47;5.45;;;1.90;;
15536;SDS011;7870;52.448;13.270;2023-03-23T00:42:14;3.30;;;2.00;;
15536;SDS011;7870;52.448;13.270;2023-03-23T00:44:40;7.32;;;1.90;;
15536;SDS011;7870;52.448;13.270;2023-03-23T00:47:05;4.80;;;2.22;;
15536;SDS011;7870;52.448;13.270;2023-03-23T00:49:33;3.45;;;1.90;;
15536;SDS011;7870;52.448;13.270;2023-03-23T00:52:00;3.95;;;1.80;;
15536;SDS011;7870;52.448;13.270;2023-03-23T00:54:26;4.38;;;1.92;;
15536;SDS011;7870;52.448;13.270;2023-03-23T00:56:52;4.45;;;2.10;;
15536;SDS011;7870;52.448;13.270;2023-03-23T00:59:18;4.93;;;1.90;;
15536;SDS011;7870;52.448;13.270;2023-03-23T01:01:44;3.83;;;2.10;;
15536;SDS011;7870;52.448;13.270;2023-03-23T01:04:09;4.53;;;2.15;;
15536;SDS011;7870;52.448;13.270;2023-03-23T01:06:37;5.05;;;2.30;;
15536;SDS011;7870;52.448;13.270;2023-03-23T01:09:04;3.25;;;2.08;;
15536;SDS011;7870;52.448;13.270;2023-03-23T01:11:32;4.30;;;2.83;;
15536;SDS011;7870;52.448;13.270;2023-03-23T01:13:57;2.78;;;1.83;;
15536;SDS011;7870;52.448;13.270;2023-03-23T01:16:23;3.63;;;2.10;;
15536;SDS011;7870;52.448;13.270;2023-03-23T01:18:49;5.50;;;1.90;;
15536;SDS011;7870;52.448;13.270;2023-03-23T01:21:15;5.43;;;2.70;;
15536;SDS011;7870;52.448;13.270;2023-03-23T01:23:42;6.30;;;2.30;;
15536;SDS011;7870;52.448;13.270;2023-03-23T01:26:09;4.38;;;2.25;;
15536;SDS011;7870;52.448;13.270;2023-03-23T01:28:36;2.95;;;1.80;;
15536;SDS011;7870;52.448;13.270;2023-03-23T01:31:06;4.15;;;1.90;;
15536;SDS011;7870;52.448;13.270;2023-03-23T01:33:35;4.32;;;2.13;;
15536;SDS011;7870;52.448;13.270;2023-03-23T01:36:10;5.45;;;2.35;;
15536;SDS011;7870;52.448;13.270;2023-03-23T01:38:38;4.30;;;2.03;;
15536;SDS011;7870;52.448;13.270;2023-03-23T01:41:03;4.35;;;2.05;;
15536;SDS011;7870;52.448;13.270;2023-03-23T01:43:29;4.55;;;2.10;;
15536;SDS011;7870;52.448;13.270;2023-03-23T01:45:54;9.20;;;1.85;;
15536;SDS011;7870;52.448;13.270;2023-03-23T01:48:21;3.28;;;1.80;;
15536;SDS011;7870;52.448;13.270;2023-03-23T01:53:19;4.57;;;2.15;;
15536;SDS011;7870;52.448;13.270;2023-03-23T01:55:46;4.13;;;2.00;;
15536;SDS011;7870;52.448;13.270;2023-03-23T01:58:17;5.32;;;1.70;;
15536;SDS011;7870;52.448;13.270;2023-03-23T02:00:44;3.58;;;1.98;;
15536;SDS011;7870;52.448;13.270;2023-03-23T02:03:10;5.40;;;1.77;;
15536;SDS011;7870;52.448;13.270;2023-03-23T02:05:41;5.22;;;1.90;;
15536;SDS011;7870;52.448;13.270;2023-03-23T02:08:13;4.93;;;2.20;;
15536;SDS011;7870;52.448;13.270;2023-03-23T02:10:39;4.00;;;2.28;;
15536;SDS011;7870;52.448;13.270;2023-03-23T02:13:07;4.95;;;2.45;;
15536;SDS011;7870;52.448;13.270;2023-03-23T02:15:40;3.58;;;2.13;;
15536;SDS011;7870;52.448;13.270;2023-03-23T02:20:54;5.00;;;2.00;;
15536;SDS011;7870;52.448;13.270;2023-03-23T02:23:47;3.38;;;1.90;;
15536;SDS011;7870;52.448;13.270;2023-03-23T02:26:28;5.75;;;1.95;;
15536;SDS011;7870;52.448;13.270;2023-03-23T02:29:19;5.68;;;2.60;;
15536;SDS011;7870;52.448;13.270;2023-03-23T02:34:41;3.13;;;2.10;;
15536;SDS011;7870;52.448;13.270;2023-03-23T02:37:10;3.40;;;1.65;;
15536;SDS011;7870;52.448;13.270;2023-03-23T02:39:45;5.82;;;2.63;;
15536;SDS011;7870;52.448;13.270;2023-03-23T02:42:18;3.10;;;2.00;;
15536;SDS011;7870;52.448;13.270;2023-03-23T02:44:46;7.30;;;1.90;;
15536;SDS011;7870;52.448;13.270;2023-03-23T02:47:14;3.55;;;2.20;;
15536;SDS011;7870;52.448;13.270;2023-03-23T02:49:42;5.50;;;2.08;;
15536;SDS011;7870;52.448;13.270;2023-03-23T02:52:14;3.88;;;2.10;;
15536;SDS011;7870;52.448;13.270;2023-03-23T02:54:44;4.80;;;2.33;;
15536;SDS011;7870;52.448;13.270;2023-03-23T02:57:11;4.78;;;2.22;;
15536;SDS011;7870;52.448;13.270;2023-03-23T02:59:40;4.72;;;1.95;;
15536;SDS011;7870;52.448;13.270;2023-03-23T03:02:09;4.30;;;2.50;;
15536;SDS011;7870;52.448;13.270;2023-03-23T03:04:38;4.68;;;2.33;;
15536;SDS011;7870;52.448;13.270;2023-03-23T03:07:13;4.30;;;2.08;;
15536;SDS011;7870;52.448;13.270;2023-03-23T03:09:56;5.63;;;2.17;;
15536;SDS011;7870;52.448;13.270;2023-03-23T03:15:40;7.10;;;2.38;;
15536;SDS011;7870;52.448;13.270;2023-03-23T03:18:30;4.47;;;1.95;;
15536;SDS011;7870;52.448;13.270;2023-03-23T03:21:03;5.63;;;2.08;;
15536;SDS011;7870;52.448;13.270;2023-03-23T03:23:31;5.43;;;2.50;;
15536;SDS011;7870;52.448;13.270;2023-03-23T03:25:59;8.25;;;2.67;;
15536;SDS011;7870;52.448;13.270;2023-03-23T03:28:37;4.85;;;2.10;;
15536;SDS011;7870;52.448;13.270;2023-03-23T03:31:03;4.32;;;2.03;;
15536;SDS011;7870;52.448;13.270;2023-03-23T03:33:29;4.60;;;2.13;;
15536;SDS011;7870;52.448;13.270;2023-03-23T03:35:58;4.88;;;2.00;;
15536;SDS011;7870;52.448;13.270;2023-03-23T03:38:25;5.65;;;2.10;;
15536;SDS011;7870;52.448;13.270;2023-03-23T03:40:54;4.20;;;1.80;;
15536;SDS011;7870;52.448;13.270;2023-03-23T03:43:22;5.00;;;2.40;;
15536;SDS011;7870;52.448;13.270;2023-03-23T03:45:47;3.83;;;1.90;;
15536;SDS011;7870;52.448;13.270;2023-03-23T03:48:13;3.38;;;2.08;;
15536;SDS011;7870;52.448;13.270;2023-03-23T03:50:39;4.78;;;2.42;;
15536;SDS011;7870;52.448;13.270;2023-03-23T03:53:05;3.90;;;2.30;;
15536;SDS011;7870;52.448;13.270;2023-03-23T03:55:40;3.78;;;2.17;;
15536;SDS011;7870;52.448;13.270;2023-03-23T03:58:13;5.10;;;2.67;;
15536;SDS011;7870;52.448;13.270;2023-03-23T04:01:02;4.13;;;2.17;;
15536;SDS011;7870;52.448;13.270;2023-03-23T04:03:33;3.47;;;2.03;;
15536;SDS011;7870;52.448;13.270;2023-03-23T04:06:05;4.72;;;2.10;;
15536;SDS011;7870;52.448;13.270;2023-03-23T04:08:32;4.43;;;2.30;;
15536;SDS011;7870;52.448;13.270;2023-03-23T04:10:58;3.70;;;2.13;;
15536;SDS011;7870;52.448;13.270;2023-03-23T04:13:24;3.40;;;1.90;;
15536;SDS011;7870;52.448;13.270;2023-03-23T04:16:04;7.03;;;2.08;;
15536;SDS011;7870;52.448;13.270;2023-03-23T04:18:31;4.05;;;2.55;;
15536;SDS011;7870;52.448;13.270;2023-03-23T04:20:58;5.25;;;2.42;;
15536;SDS011;7870;52.448;13.270;2023-03-23T04:23:25;3.35;;;2.03;;
15536;SDS011;7870;52.448;13.270;2023-03-23T04:25:52;3.38;;;2.28;;
15536;SDS011;7870;52.448;13.270;2023-03-23T04:31:09;7.18;;;2.42;;
15536;SDS011;7870;52.448;13.270;2023-03-23T04:33:39;5.32;;;2.50;;
15536;SDS011;7870;52.448;13.270;2023-03-23T04:36:05;4.10;;;2.20;;
15536;SDS011;7870;52.448;13.270;2023-03-23T04:38:36;6.72;;;4.53;;
15536;SDS011;7870;52.448;13.270;2023-03-23T04:41:09;4.97;;;3.00;;
15536;SDS011;7870;52.448;13.270;2023-03-23T04:43:58;4.93;;;2.40;;
15536;SDS011;7870;52.448;13.270;2023-03-23T04:46:39;2.95;;;2.03;;
15536;SDS011;7870;52.448;13.270;2023-03-23T04:49:08;4.72;;;2.20;;
15536;SDS011;7870;52.448;13.270;2023-03-23T04:51:36;3.95;;;2.00;;
15536;SDS011;7870;52.448;13.270;2023-03-23T04:54:36;3.88;;;2.38;;
15536;SDS011;7870;52.448;13.270;2023-03-23T04:57:02;5.88;;;2.40;;
15536;SDS011;7870;52.448;13.270;2023-03-23T04:59:29;7.72;;;2.50;;
15536;SDS011;7870;52.448;13.270;2023-03-23T05:02:14;5.05;;;2.72;;
15536;SDS011;7870;52.448;13.270;2023-03-23T05:04:44;5.47;;;2.80;;
15536;SDS011;7870;52.448;13.270;2023-03-23T05:07:13;4.82;;;2.70;;
15536;SDS011;7870;52.448;13.270;2023-03-23T05:09:48;4.90;;;2.95;;
15536;SDS011;7870;52.448;13.270;2023-03-23T05:12:15;5.45;;;2.60;;
15536;SDS011;7870;52.448;13.270;2023-03-23T05:14:53;5.57;;;2.65;;
15536;SDS011;7870;52.448;13.270;2023-03-23T05:17:22;5.18;;;2.50;;
15536;SDS011;7870;52.448;13.270;2023-03-23T05:19:50;4.30;;;2.97;;
15536;SDS011;7870;52.448;13.270;2023-03-23T05:22:34;7.68;;;2.88;;
15536;SDS011;7870;52.448;13.270;2023-03-23T05:25:04;7.22;;;3.30;;
15536;SDS011;7870;52.448;13.270;2023-03-23T05:27:36;3.75;;;2.88;;
15536;SDS011;7870;52.448;13.270;2023-03-23T05:30:12;3.95;;;2.47;;
15536;SDS011;7870;52.448;13.270;2023-03-23T05:32:41;3.47;;;2.17;;
15536;SDS011;7870;52.448;13.270;2023-03-23T05:35:38;6.00;;;2.70;;
15536;SDS011;7870;52.448;13.270;2023-03-23T05:38:03;4.40;;;2.08;;
15536;SDS011;7870;52.448;13.270;2023-03-23T05:40:30;6.20;;;2.35;;
15536;SDS011;7870;52.448;13.270;2023-03-23T05:43:06;5.65;;;2.13;;
15536;SDS011;7870;52.448;13.270;2023-03-23T05:45:46;4.47;;;2.30;;
15536;SDS011;7870;52.448;13.270;2023-03-23T05:48:12;4.20;;;2.30;;
15536;SDS011;7870;52.448;13.270;2023-03-23T05:50:37;4.95;;;2.70;;
15536;SDS011;7870;52.448;13.270;2023-03-23T05:53:03;6.00;;;2.22;;
15536;SDS011;7870;52.448;13.270;2023-03-23T05:55:31;2.78;;;1.80;;
15536;SDS011;7870;52.448;13.270;2023-03-23T05:58:06;5.13;;;2.30;;
15536;SDS011;7870;52.448;13.270;2023-03-23T06:00:35;4.03;;;2.05;;
15536;SDS011;7870;52.448;13.270;2023-03-23T06:03:11;7.13;;;2.47;;
15536;SDS011;7870;52.448;13.270;2023-03-23T06:05:47;5.75;;;3.40;;
15536;SDS011;7870;52.448;13.270;2023-03-23T06:08:16;5.25;;;2.42;;
15536;SDS011;7870;52.448;13.270;2023-03-23T06:10:42;4.70;;;2.40;;
15536;SDS011;7870;52.448;13.270;2023-03-23T06:13:08;5.38;;;2.05;;
15536;SDS011;7870;52.448;13.270;2023-03-23T06:15:44;4.97;;;2.75;;
15536;SDS011;7870;52.448;13.270;2023-03-23T06:18:18;5.15;;;2.40;;
15536;SDS011;7870;52.448;13.270;2023-03-23T06:20:59;5.40;;;2.60;;
15536;SDS011;7870;52.448;13.270;2023-03-23T06:23:41;5.75;;;2.47;;
15536;SDS011;7870;52.448;13.270;2023-03-23T06:26:07;4.90;;;2.20;;
15536;SDS011;7870;52.448;13.270;2023-03-23T06:28:34;4.82;;;2.35;;
15536;SDS011;7870;52.448;13.270;2023-03-23T06:31:04;5.05;;;2.40;;
15536;SDS011;7870;52.448;13.270;2023-03-23T06:33:33;3.92;;;2.10;;
15536;SDS011;7870;52.448;13.270;2023-03-23T06:36:16;5.00;;;2.22;;
15536;SDS011;7870;52.448;13.270;2023-03-23T06:38:56;5.88;;;2.55;;
15536;SDS011;7870;52.448;13.270;2023-03-23T06:41:30;5.80;;;2.65;;
15536;SDS011;7870;52.448;13.270;2023-03-23T06:43:56;6.22;;;2.40;;
15536;SDS011;7870;52.448;13.270;2023-03-23T06:46:26;3.80;;;2.28;;
15536;SDS011;7870;52.448;13.270;2023-03-23T06:48:55;4.55;;;2.33;;
15536;SDS011;7870;52.448;13.270;2023-03-23T06:51:29;10.82;;;2.97;;
15536;SDS011;7870;52.448;13.270;2023-03-23T06:53:55;5.82;;;2.28;;
15536;SDS011;7870;52.448;13.270;2023-03-23T06:56:23;5.00;;;2.50;;
15536;SDS011;7870;52.448;13.270;2023-03-23T06:58:49;6.55;;;2.63;;
15536;SDS011;7870;52.448;13.270;2023-03-23T07:01:16;5.40;;;2.67;;
15536;SDS011;7870;52.448;13.270;2023-03-23T07:03:50;5.55;;;2.63;;
15536;SDS011;7870;52.448;13.270;2023-03-23T07:06:21;6.43;;;2.88;;
15536;SDS011;7870;52.448;13.270;2023-03-23T07:08:53;4.97;;;2.90;;
15536;SDS011;7870;52.448;13.270;2023-03-23T07:11:22;5.95;;;3.17;;
15536;SDS011;7870;52.448;13.270;2023-03-23T07:13:47;3.80;;;2.60;;
15536;SDS011;7870;52.448;13.270;2023-03-23T07:16:15;7.30;;;2.65;;
15536;SDS011;7870;52.448;13.270;2023-03-23T07:18:42;11.70;;;3.08;;
15536;SDS011;7870;52.448;13.270;2023-03-23T07:21:09;5.20;;;2.83;;
15536;SDS011;7870;52.448;13.270;2023-03-23T07:23:35;4.70;;;2.75;;
15536;SDS011;7870;52.448;13.270;2023-03-23T07:26:07;6.57;;;2.70;;
15536;SDS011;7870;52.448;13.270;2023-03-23T07:28:39;6.45;;;2.88;;
15536;SDS011;7870;52.448;13.270;2023-03-23T07:31:26;8.18;;;2.78;;
15536;SDS011;7870;52.448;13.270;2023-03-23T07:33:53;6.32;;;2.95;;
15536;SDS011;7870;52.448;13.270;2023-03-23T07:36:20;4.60;;;2.72;;
15536;SDS011;7870;52.448;13.270;2023-03-23T07:38:45;5.75;;;3.10;;
15536;SDS011;7870;52.448;13.270;2023-03-23T07:41:12;3.97;;;2.60;;
15536;SDS011;7870;52.448;13.270;2023-03-23T07:43:40;4.88;;;2.60;;
15536;SDS011;7870;52.448;13.270;2023-03-23T07:46:09;5.15;;;3.20;;
15536;SDS011;7870;52.448;13.270;2023-03-23T07:48:44;5.10;;;2.95;;
15536;SDS011;7870;52.448;13.270;2023-03-23T07:51:10;3.83;;;2.83;;
15536;SDS011;7870;52.448;13.270;2023-03-23T07:53:36;5.00;;;2.72;;
15536;SDS011;7870;52.448;13.270;2023-03-23T07:56:14;7.22;;;3.03;;
15536;SDS011;7870;52.448;13.270;2023-03-23T07:59:06;9.38;;;3.30;;
15536;SDS011;7870;52.448;13.270;2023-03-23T08:01:35;7.60;;;3.90;;
15536;SDS011;7870;52.448;13.270;2023-03-23T08:04:19;8.13;;;3.58;;
15536;SDS011;7870;52.448;13.270;2023-03-23T08:06:56;6.15;;;3.63;;
15536;SDS011;7870;52.448;13.270;2023-03-23T08:09:32;5.32;;;3.05;;
15536;SDS011;7870;52.448;13.270;2023-03-23T08:12:11;5.90;;;3.17;;
15536;SDS011;7870;52.448;13.270;2023-03-23T08:14:49;6.47;;;3.00;;
15536;SDS011;7870;52.448;13.270;2023-03-23T08:17:35;8.75;;;3.33;;
15536;SDS011;7870;52.448;13.270;2023-03-23T08:20:36;5.85;;;2.90;;
15536;SDS011;7870;52.448;13.270;2023-03-23T08:23:22;4.43;;;3.25;;
15536;SDS011;7870;52.448;13.270;2023-03-23T08:25:54;4.95;;;2.90;;
15536;SDS011;7870;52.448;13.270;2023-03-23T08:28:30;4.60;;;2.67;;
15536;SDS011;7870;52.448;13.270;2023-03-23T08:31:15;5.25;;;2.80;;
15536;SDS011;7870;52.448;13.270;2023-03-23T08:34:05;5.28;;;2.78;;
15536;SDS011;7870;52.448;13.270;2023-03-23T08:36:49;5.68;;;3.20;;
15536;SDS011;7870;52.448;13.270;2023-03-23T08:39:39;4.90;;;3.13;;
15536;SDS011;7870;52.448;13.270;2023-03-23T08:42:24;4.45;;;2.88;;
15536;SDS011;7870;52.448;13.270;2023-03-23T08:45:12;6.43;;;3.00;;
15536;SDS011;7870;52.448;13.270;2023-03-23T08:48:05;4.35;;;2.92;;
15536;SDS011;7870;52.448;13.270;2023-03-23T08:50:32;7.18;;;3.50;;
15536;SDS011;7870;52.448;13.270;2023-03-23T08:53:20;5.72;;;2.70;;
15536;SDS011;7870;52.448;13.270;2023-03-23T08:55:46;5.07;;;2.75;;
15536;SDS011;7870;52.448;13.270;2023-03-23T08:58:22;5.00;;;2.55;;
15536;SDS011;7870;52.448;13.270;2023-03-23T09:01:03;4.28;;;2.45;;
15536;SDS011;7870;52.448;13.270;2023-03-23T09:03:43;4.57;;;2.58;;
15536;SDS011;7870;52.448;13.270;2023-03-23T09:06:21;6.07;;;2.78;;
15536;SDS011;7870;52.448;13.270;2023-03-23T09:08:47;5.43;;;2.10;;
15536;SDS011;7870;52.448;13.270;2023-03-23T09:11:13;6.03;;;2.67;;
15536;SDS011;7870;52.448;13.270;2023-03-23T09:13:39;4.85;;;2.60;;
15536;SDS011;7870;52.448;13.270;2023-03-23T09:16:05;3.05;;;1.80;;
15536;SDS011;7870;52.448;13.270;2023-03-23T09:18:31;5.05;;;2.10;;
15536;SDS011;7870;52.448;13.270;2023-03-23T09:20:57;3.88;;;2.03;;
15536;SDS011;7870;52.448;13.270;2023-03-23T09:23:23;4.40;;;2.20;;
15536;SDS011;7870;52.448;13.270;2023-03-23T09:25:50;5.30;;;2.10;;
15536;SDS011;7870;52.448;13.270;2023-03-23T09:28:17;5.03;;;2.13;;
15536;SDS011;7870;52.448;13.270;2023-03-23T09:30:42;5.85;;;2.30;;
15536;SDS011;7870;52.448;13.270;2023-03-23T09:33:09;3.60;;;1.92;;
15536;SDS011;7870;52.448;13.270;2023-03-23T09:35:35;3.35;;;2.20;;
15536;SDS011;7870;52.448;13.270;2023-03-23T09:38:02;3.80;;;2.28;;
15536;SDS011;7870;52.448;13.270;2023-03-23T09:40:48;4.82;;;1.70;;
15536;SDS011;7870;52.448;13.270;2023-03-23T09:46:33;3.38;;;1.85;;
15536;SDS011;7870;52.448;13.270;2023-03-23T09:49:11;2.78;;;1.40;;
15536;SDS011;7870;52.448;13.270;2023-03-23T09:54:19;4.00;;;2.20;;
15536;SDS011;7870;52.448;13.270;2023-03-23T09:56:48;2.60;;;1.50;;
15536;SDS011;7870;52.448;13.270;2023-03-23T09:59:31;3.38;;;1.75;;
15536;SDS011;7870;52.448;13.270;2023-03-23T10:02:21;2.05;;;1.30;;
15536;SDS011;7870;52.448;13.270;2023-03-23T10:04:51;2.10;;;1.15;;
15536;SDS011;7870;52.448;13.270;2023-03-23T10:07:21;3.58;;;1.52;;
15536;SDS011;7870;52.448;13.270;2023-03-23T10:09:57;3.63;;;1.63;;
15536;SDS011;7870;52.448;13.270;2023-03-23T10:12:48;4.15;;;1.58;;
15536;SDS011;7870;52.448;13.270;2023-03-23T10:15:21;2.97;;;1.50;;
15536;SDS011;7870;52.448;13.270;2023-03-23T10:17:55;3.33;;;1.40;;
15536;SDS011;7870;52.448;13.270;2023-03-23T10:23:00;3.85;;;1.60;;
15536;SDS011;7870;52.448;13.270;2023-03-23T10:25:34;3.15;;;1.58;;
15536;SDS011;7870;52.448;13.270;2023-03-23T10:28:12;2.30;;;1.30;;
15536;SDS011;7870;52.448;13.270;2023-03-23T10:30:41;2.50;;;1.52;;
15536;SDS011;7870;52.448;13.270;2023-03-23T10:33:11;3.97;;;1.60;;
15536;SDS011;7870;52.448;13.270;2023-03-23T10:35:44;2.97;;;2.00;;
15536;SDS011;7870;52.448;13.270;2023-03-23T10:38:22;3.33;;;1.63;;
15536;SDS011;7870;52.448;13.270;2023-03-23T10:40:52;4.00;;;1.80;;
15536;SDS011;7870;52.448;13.270;2023-03-23T10:43:21;2.95;;;1.38;;
15536;SDS011;7870;52.448;13.270;2023-03-23T10:45:49;3.95;;;1.40;;
15536;SDS011;7870;52.448;13.270;2023-03-23T10:48:27;3.03;;;1.63;;
15536;SDS011;7870;52.448;13.270;2023-03-23T10:50:58;3.60;;;1.40;;
15536;SDS011;7870;52.448;13.270;2023-03-23T10:53:28;2.15;;;1.35;;
15536;SDS011;7870;52.448;13.270;2023-03-23T10:55:58;4.10;;;1.60;;
15536;SDS011;7870;52.448;13.270;2023-03-23T10:58:29;2.28;;;1.20;;
15536;SDS011;7870;52.448;13.270;2023-03-23T11:00:57;2.40;;;1.20;;
15536;SDS011;7870;52.448;13.270;2023-03-23T11:06:07;4.53;;;1.50;;
15536;SDS011;7870;52.448;13.270;2023-03-23T11:08:46;2.78;;;1.70;;
15536;SDS011;7870;52.448;13.270;2023-03-23T11:11:16;3.47;;;1.70;;
15536;SDS011;7870;52.448;13.270;2023-03-23T11:13:43;3.78;;;1.65;;
15536;SDS011;7870;52.448;13.270;2023-03-23T11:16:10;4.43;;;2.00;;
15536;SDS011;7870;52.448;13.270;2023-03-23T11:18:50;2.35;;;1.40;;
15536;SDS011;7870;52.448;13.270;2023-03-23T11:21:17;3.00;;;1.42;;
15536;SDS011;7870;52.448;13.270;2023-03-23T11:23:47;3.20;;;1.50;;
15536;SDS011;7870;52.448;13.270;2023-03-23T11:28:51;2.97;;;1.25;;
15536;SDS011;7870;52.448;13.270;2023-03-23T11:31:24;3.10;;;1.35;;
15536;SDS011;7870;52.448;13.270;2023-03-23T11:33:54;2.63;;;1.55;;
15536;SDS011;7870;52.448;13.270;2023-03-23T11:36:28;3.90;;;1.50;;
15536;SDS011;7870;52.448;13.270;2023-03-23T11:38:55;3.60;;;1.45;;
15536;SDS011;7870;52.448;13.270;2023-03-23T11:41:22;2.80;;;1.27;;
15536;SDS011;7870;52.448;13.270;2023-03-23T11:43:50;2.45;;;1.08;;
15536;SDS011;7870;52.448;13.270;2023-03-23T11:46:25;4.90;;;1.60;;
15536;SDS011;7870;52.448;13.270;2023-03-23T11:48:59;2.60;;;1.40;;
15536;SDS011;7870;52.448;13.270;2023-03-23T11:54:16;3.50;;;1.35;;
15536;SDS011;7870;52.448;13.270;2023-03-23T11:56:49;1.98;;;1.13;;
15536;SDS011;7870;52.448;13.270;2023-03-23T11:59:16;4.15;;;2.22;;
15536;SDS011;7870;52.448;13.270;2023-03-23T12:01:53;4.30;;;1.45;;
15536;SDS011;7870;52.448;13.270;2023-03-23T12:04:29;2.50;;;1.30;;
15536;SDS011;7870;52.448;13.270;2023-03-23T12:09:49;2.72;;;1.30;;
15536;SDS011;7870;52.448;13.270;2023-03-23T12:15:04;3.63;;;1.25;;
15536;SDS011;7870;52.448;13.270;2023-03-23T12:20:27;2.83;;;1.33;;
15536;SDS011;7870;52.448;13.270;2023-03-23T12:26:06;2.90;;;1.20;;
15536;SDS011;7870;52.448;13.270;2023-03-23T12:31:36;3.33;;;1.30;;
15536;SDS011;7870;52.448;13.270;2023-03-23T12:34:20;3.45;;;1.70;;
15536;SDS011;7870;52.448;13.270;2023-03-23T12:40:28;2.65;;;1.20;;
15536;SDS011;7870;52.448;13.270;2023-03-23T12:43:06;6.35;;;1.30;;
15536;SDS011;7870;52.448;13.270;2023-03-23T12:48:26;2.67;;;1.27;;
15536;SDS011;7870;52.448;13.270;2023-03-23T12:56:33;5.88;;;1.50;;
15536;SDS011;7870;52.448;13.270;2023-03-23T12:59:10;3.13;;;1.75;;
15536;SDS011;7870;52.448;13.270;2023-03-23T13:01:37;3.13;;;1.35;;
15536;SDS011;7870;52.448;13.270;2023-03-23T13:04:10;2.47;;;1.65;;
15536;SDS011;7870;52.448;13.270;2023-03-23T13:06:39;2.53;;;1.38;;
15536;SDS011;7870;52.448;13.270;2023-03-23T13:11:54;3.20;;;1.45;;
15536;SDS011;7870;52.448;13.270;2023-03-23T13:17:28;2.92;;;1.42;;
15536;SDS011;7870;52.448;13.270;2023-03-23T13:20:23;3.67;;;1.40;;
15536;SDS011;7870;52.448;13.270;2023-03-23T13:25:49;2.20;;;1.10;;
15536;SDS011;7870;52.448;13.270;2023-03-23T13:28:22;2.80;;;1.20;;
15536;SDS011;7870;52.448;13.270;2023-03-23T13:31:25;3.08;;;1.23;;
15536;SDS011;7870;52.448;13.270;2023-03-23T13:33:46;2.95;;;1.20;;
15536;SDS011;7870;52.448;13.270;2023-03-23T13:36:16;3.67;;;1.67;;
15536;SDS011;7870;52.448;13.270;2023-03-23T13:38:59;3.80;;;1.38;;
15536;SDS011;7870;52.448;13.270;2023-03-23T13:41:26;4.63;;;1.50;;
15536;SDS011;7870;52.448;13.270;2023-03-23T13:43:52;5.85;;;1.52;;
15536;SDS011;7870;52.448;13.270;2023-03-23T13:48:47;3.20;;;1.42;;
15536;SDS011;7870;52.448;13.270;2023-03-23T13:56:58;3.28;;;1.40;;
15536;SDS011;7870;52.448;13.270;2023-03-23T14:01:52;2.97;;;1.20;;
15536;SDS011;7870;52.448;13.270;2023-03-23T14:04:23;4.20;;;1.63;;
15536;SDS011;7870;52.448;13.270;2023-03-23T14:06:56;3.65;;;1.58;;
15536;SDS011;7870;52.448;13.270;2023-03-23T14:09:31;3.03;;;1.50;;
15536;SDS011;7870;52.448;13.270;2023-03-23T14:12:03;3.42;;;1.20;;
15536;SDS011;7870;52.448;13.270;2023-03-23T14:14:44;4.00;;;1.25;;
15536;SDS011;7870;52.448;13.270;2023-03-23T14:17:14;2.95;;;1.30;;
15536;SDS011;7870;52.448;13.270;2023-03-23T14:22:18;2.92;;;1.30;;
15536;SDS011;7870;52.448;13.270;2023-03-23T14:24:45;4.28;;;1.50;;
15536;SDS011;7870;52.448;13.270;2023-03-23T14:27:12;5.45;;;1.17;;
15536;SDS011;7870;52.448;13.270;2023-03-23T14:29:57;5.13;;;1.65;;
15536;SDS011;7870;52.448;13.270;2023-03-23T14:32:23;3.35;;;1.63;;
15536;SDS011;7870;52.448;13.270;2023-03-23T14:34:51;3.60;;;1.38;;
15536;SDS011;7870;52.448;13.270;2023-03-23T14:37:17;4.55;;;1.25;;
15536;SDS011;7870;52.448;13.270;2023-03-23T14:39:47;3.53;;;1.27;;
15536;SDS011;7870;52.448;13.270;2023-03-23T14:42:14;3.65;;;1.55;;
15536;SDS011;7870;52.448;13.270;2023-03-23T14:44:45;2.55;;;1.23;;
15536;SDS011;7870;52.448;13.270;2023-03-23T14:47:15;4.15;;;1.30;;
15536;SDS011;7870;52.448;13.270;2023-03-23T14:49:44;2.95;;;1.25;;
15536;SDS011;7870;52.448;13.270;2023-03-23T14:52:14;3.67;;;1.73;;
15536;SDS011;7870;52.448;13.270;2023-03-23T14:54:41;4.88;;;1.85;;
15536;SDS011;7870;52.448;13.270;2023-03-23T14:57:18;4.93;;;1.85;;
15536;SDS011;7870;52.448;13.270;2023-03-23T14:59:45;3.42;;;1.60;;
15536;SDS011;7870;52.448;13.270;2023-03-23T15:02:13;5.00;;;1.45;;
15536;SDS011;7870;52.448;13.270;2023-03-23T15:04:41;4.65;;;1.98;;
15536;SDS011;7870;52.448;13.270;2023-03-23T15:07:09;4.15;;;1.50;;
15536;SDS011;7870;52.448;13.270;2023-03-23T15:09:38;5.95;;;1.77;;
15536;SDS011;7870;52.448;13.270;2023-03-23T15:12:05;3.70;;;1.60;;
15536;SDS011;7870;52.448;13.270;2023-03-23T15:14:32;4.38;;;1.60;;
15536;SDS011;7870;52.448;13.270;2023-03-23T15:17:19;7.43;;;1.70;;
15536;SDS011;7870;52.448;13.270;2023-03-23T15:19:46;4.32;;;1.80;;
15536;SDS011;7870;52.448;13.270;2023-03-23T15:22:15;3.03;;;1.15;;
15536;SDS011;7870;52.448;13.270;2023-03-23T15:25:01;5.07;;;1.60;;
15536;SDS011;7870;52.448;13.270;2023-03-23T15:29:56;3.85;;;1.40;;
15536;SDS011;7870;52.448;13.270;2023-03-23T15:32:27;4.10;;;1.30;;
15536;SDS011;7870;52.448;13.270;2023-03-23T15:34:55;2.75;;;1.25;;
15536;SDS011;7870;52.448;13.270;2023-03-23T15:37:24;3.75;;;1.10;;
15536;SDS011;7870;52.448;13.270;2023-03-23T15:39:51;3.83;;;1.20;;
15536;SDS011;7870;52.448;13.270;2023-03-23T15:42:21;3.28;;;1.00;;
15536;SDS011;7870;52.448;13.270;2023-03-23T15:45:12;1.95;;;0.98;;
15536;SDS011;7870;52.448;13.270;2023-03-23T15:47:49;4.03;;;1.30;;
15536;SDS011;7870;52.448;13.270;2023-03-23T15:50:19;4.32;;;1.50;;
15536;SDS011;7870;52.448;13.270;2023-03-23T15:52:46;4.35;;;1.30;;
15536;SDS011;7870;52.448;13.270;2023-03-23T15:55:23;3.67;;;1.55;;
15536;SDS011;7870;52.448;13.270;2023-03-23T15:57:52;3.25;;;1.45;;
15536;SDS011;7870;52.448;13.270;2023-03-23T16:00:20;3.22;;;1.33;;
15536;SDS011;7870;52.448;13.270;2023-03-23T16:02:49;4.43;;;1.45;;
15536;SDS011;7870;52.448;13.270;2023-03-23T16:05:19;4.63;;;1.40;;
15536;SDS011;7870;52.448;13.270;2023-03-23T16:07:46;5.28;;;1.20;;
15536;SDS011;7870;52.448;13.270;2023-03-23T16:10:17;3.17;;;1.13;;
15536;SDS011;7870;52.448;13.270;2023-03-23T16:12:46;3.70;;;2.47;;
15536;SDS011;7870;52.448;13.270;2023-03-23T16:15:13;3.10;;;1.25;;
15536;SDS011;7870;52.448;13.270;2023-03-23T16:17:41;3.92;;;1.58;;
15536;SDS011;7870;52.448;13.270;2023-03-23T16:20:12;3.78;;;1.50;;
15536;SDS011;7870;52.448;13.270;2023-03-23T16:22:40;3.25;;;1.40;;
15536;SDS011;7870;52.448;13.270;2023-03-23T16:25:07;4.50;;;1.20;;
15536;SDS011;7870;52.448;13.270;2023-03-23T16:27:34;4.20;;;1.13;;
15536;SDS011;7870;52.448;13.270;2023-03-23T16:30:01;4.97;;;1.20;;
15536;SDS011;7870;52.448;13.270;2023-03-23T16:32:35;4.13;;;1.52;;
15536;SDS011;7870;52.448;13.270;2023-03-23T16:35:01;4.28;;;1.23;;